createdAt,value
2018-12-10T00:00:40.709Z,-1.1
2018-12-10T00:01:31.053Z,-1.1
2018-12-10T00:02:21.096Z,-1.1
2018-12-10T00:03:11.161Z,-1.1
2018-12-10T00:04:01.216Z,-1
2018-12-10T00:04:51.283Z,-1.1
2018-12-10T00:05:41.336Z,-1
2018-12-10T00:06:31.384Z,-1
2018-12-10T00:24:43.965Z,-0.8
2018-12-10T00:25:33.694Z,-0.8
2018-12-10T00:26:23.753Z,-0.8
2018-12-10T00:27:13.818Z,-0.8
2018-12-10T00:28:03.881Z,-0.8
2018-12-10T00:28:53.649Z,-0.8
2018-12-10T00:29:44.307Z,-0.8
2018-12-10T00:30:33.753Z,-0.8
2018-12-10T00:31:23.526Z,-0.7
2018-12-10T00:32:14.131Z,-0.8
2018-12-10T00:33:04.200Z,-0.7
2018-12-10T00:33:53.974Z,-0.8
2018-12-10T00:34:44.316Z,-0.8
2018-12-10T00:35:34.366Z,-0.8
2018-12-10T00:36:24.149Z,-0.7
2018-12-10T00:37:14.213Z,-0.7
2018-12-10T00:38:04.259Z,-0.7
2018-12-10T00:38:54.590Z,-0.7
2018-12-10T00:39:44.368Z,-0.6
2018-12-10T00:40:34.709Z,-0.7
2018-12-10T00:41:24.785Z,-0.6
2018-12-10T00:42:14.553Z,-0.7
2018-12-10T00:43:04.729Z,-0.6
2018-12-10T00:43:54.949Z,-0.6
2018-12-10T00:44:44.719Z,-0.6
2018-12-10T00:45:35.158Z,-0.6
2018-12-10T00:46:25.105Z,-0.6
2018-12-10T00:47:15.170Z,-0.6
2018-12-10T00:48:05.216Z,-0.6
2018-12-10T00:48:55.280Z,-0.6
2018-12-10T00:49:45.333Z,-0.6
2018-12-10T00:50:35.436Z,-0.6
2018-12-10T00:51:25.450Z,-0.6
2018-12-10T00:52:15.239Z,-0.6
2018-12-10T00:53:05.288Z,-0.5
2018-12-10T00:53:55.357Z,-0.6
2018-12-10T00:54:45.413Z,-0.6
2018-12-10T00:55:35.710Z,-0.5
2018-12-10T00:56:25.791Z,-0.5
2018-12-10T00:57:15.571Z,-0.5
2018-12-10T00:58:05.908Z,-0.5
2018-12-10T00:58:55.970Z,-0.5
2018-12-10T00:59:45.757Z,-0.5
2018-12-10T01:00:36.332Z,-0.5
2018-12-10T01:01:25.863Z,-0.5
2018-12-10T01:02:16.197Z,-0.5
2018-12-10T01:03:06.255Z,-0.4
2018-12-10T01:03:56.325Z,-0.5
2018-12-10T01:04:46.378Z,-0.5
2018-12-10T01:05:36.429Z,-0.5
2018-12-10T01:06:26.216Z,-0.4
2018-12-10T01:07:16.551Z,-0.5
2018-12-10T01:08:06.602Z,-0.4
2018-12-10T01:08:56.657Z,-0.4
2018-12-10T01:09:46.439Z,-0.4
2018-12-10T01:10:36.770Z,-0.4
2018-12-10T01:11:26.819Z,-0.4
2018-12-10T01:12:16.619Z,-0.4
2018-12-10T01:13:06.677Z,-0.4
2018-12-10T01:13:57.052Z,-0.4
2018-12-10T01:14:47.065Z,-0.4
2018-12-10T01:15:37.124Z,-0.4
2018-12-10T01:16:27.725Z,-0.4
2018-12-10T01:17:17.227Z,-0.4
2018-12-10T01:18:07.012Z,-0.4
2018-12-10T01:18:57.346Z,-0.4
2018-12-10T01:19:47.401Z,-0.4
2018-12-10T01:20:37.184Z,-0.4
2018-12-10T01:21:27.514Z,-0.4
2018-12-10T01:22:17.017Z,-0.4
2018-12-10T01:23:07.629Z,-0.4
2018-12-10T01:23:57.681Z,-0.4
2018-12-10T01:24:47.476Z,-0.3
2018-12-10T01:25:38.053Z,-0.3
2018-12-10T01:26:27.858Z,-0.3
2018-12-10T01:27:17.897Z,-0.3
2018-12-10T01:28:07.706Z,-0.3
2018-12-10T01:28:58.029Z,-0.3
2018-12-10T01:29:47.814Z,-0.3
2018-12-10T01:30:38.157Z,-0.3
2018-12-10T01:31:28.204Z,-0.3
2018-12-10T01:32:18.261Z,-0.3
2018-12-10T01:33:07.761Z,-0.3
2018-12-10T01:33:58.100Z,-0.3
2018-12-10T01:34:48.433Z,-0.3
2018-12-10T01:35:38.483Z,-0.3
2018-12-10T01:36:28.282Z,-0.3
2018-12-10T01:37:18.579Z,-0.3
2018-12-10T01:38:08.655Z,-0.3
2018-12-10T01:38:58.718Z,-0.3
2018-12-10T01:39:48.796Z,-0.3
2018-12-10T01:40:38.563Z,-0.3
2018-12-10T01:41:28.888Z,-0.3
2018-12-10T01:42:18.685Z,-0.3
2018-12-10T01:43:09.007Z,-0.3
2018-12-10T01:43:59.051Z,-0.3
2018-12-10T01:44:49.128Z,-0.3
2018-12-10T01:45:38.898Z,-0.3
2018-12-10T01:46:28.968Z,-0.3
2018-12-10T01:47:19.015Z,-0.3
2018-12-10T01:48:09.065Z,-0.2
2018-12-10T01:48:58.845Z,-0.2
2018-12-10T01:49:49.179Z,-0.2
2018-12-10T01:50:39.236Z,-0.2
2018-12-10T01:51:29.575Z,-0.2
2018-12-10T01:52:19.635Z,-0.2
2018-12-10T01:53:09.699Z,-0.2
2018-12-10T01:53:59.472Z,-0.2
2018-12-10T01:54:49.925Z,-0.2
2018-12-10T01:55:39.867Z,-0.2
2018-12-10T01:56:29.640Z,-0.2
2018-12-10T01:57:19.975Z,-0.2
2018-12-10T01:58:10.392Z,-0.2
2018-12-10T01:58:59.826Z,-0.2
2018-12-10T01:59:50.149Z,-0.2
2018-12-10T02:00:40.205Z,-0.2
2018-12-10T02:01:30.269Z,-0.1
2018-12-10T02:02:20.326Z,-0.2
2018-12-10T02:03:10.387Z,-0.1
2018-12-10T02:04:00.151Z,-0.2
2018-12-10T02:04:50.491Z,-0.2
2018-12-10T02:05:40.552Z,-0.1
2018-12-10T02:06:30.329Z,-0.1
2018-12-10T02:07:20.657Z,-0.1
2018-12-10T02:08:10.721Z,-0.1
2018-12-10T02:09:00.224Z,-0.1
2018-12-10T02:09:50.286Z,-0.1
2018-12-10T02:10:40.619Z,-0.1
2018-12-10T02:11:30.679Z,-0.1
2018-12-10T02:12:21.021Z,-0.1
2018-12-10T02:13:11.063Z,-0.1
2018-12-10T02:14:01.169Z,-0.1
2018-12-10T02:14:50.904Z,-0.1
2018-12-10T02:15:40.961Z,-0.1
2018-12-10T02:16:31.298Z,-0.1
2018-12-10T02:17:21.341Z,-0.1
2018-12-10T02:18:11.401Z,-0.1
2018-12-10T02:19:01.472Z,-0.1
2018-12-10T02:19:51.532Z,-0.1
2018-12-10T02:20:41.581Z,-0.1
2018-12-10T02:21:31.369Z,-0.1
2018-12-10T02:22:21.696Z,-0.1
2018-12-10T02:23:11.205Z,-0.1
2018-12-10T02:24:01.805Z,-0.1
2018-12-10T02:24:51.865Z,-0.1
2018-12-10T02:25:41.918Z,-0.1
2018-12-10T02:26:31.978Z,-0.1
2018-12-10T02:27:21.319Z,-0.1
2018-12-10T02:28:12.096Z,-0.1
2018-12-10T02:29:01.880Z,-0.1
2018-12-10T02:29:52.447Z,0
2018-12-10T02:30:41.995Z,-0.1
2018-12-10T02:31:32.053Z,-0.1
2018-12-10T02:32:22.103Z,-0.1
2018-12-10T02:33:12.435Z,-0.1
2018-12-10T02:34:02.497Z,-0.1
2018-12-10T02:34:52.632Z,-0.1
2018-12-10T02:35:42.610Z,0
2018-12-10T02:36:32.389Z,0
2018-12-10T02:37:22.464Z,0
2018-12-10T02:38:12.784Z,-0.1
2018-12-10T02:39:02.572Z,0
2018-12-10T02:39:52.660Z,0
2018-12-10T02:40:42.964Z,0
2018-12-10T02:41:32.746Z,0
2018-12-10T02:42:23.063Z,0
2018-12-10T02:43:12.850Z,0
2018-12-10T02:44:03.190Z,0
2018-12-10T02:44:53.487Z,0
2018-12-10T02:45:43.298Z,0
2018-12-10T02:46:33.086Z,0
2018-12-10T02:47:23.435Z,0
2018-12-10T02:48:13.493Z,0
2018-12-10T02:49:03.253Z,0.1
2018-12-10T02:49:53.827Z,0
2018-12-10T02:50:43.649Z,0
2018-12-10T02:51:33.714Z,0.1
2018-12-10T02:52:23.742Z,0
2018-12-10T02:53:13.539Z,0
2018-12-10T02:54:03.884Z,0
2018-12-10T02:54:53.651Z,0.1
2018-12-10T02:55:43.996Z,0.1
2018-12-10T02:56:34.062Z,0.1
2018-12-10T02:57:24.349Z,0.1
2018-12-10T02:58:13.876Z,0.1
2018-12-10T02:59:04.226Z,0.1
2018-12-10T02:59:54.299Z,0.1
2018-12-10T03:00:44.126Z,0.1
2018-12-10T03:01:34.389Z,0.1
2018-12-10T03:02:24.538Z,0.1
2018-12-10T03:03:14.531Z,0.1
2018-12-10T03:04:04.403Z,0.1
2018-12-10T03:04:54.651Z,0.1
2018-12-10T03:05:44.413Z,0.1
2018-12-10T03:06:34.450Z,0.1
2018-12-10T03:07:24.510Z,0.1
2018-12-10T03:08:14.833Z,0.1
2018-12-10T03:09:04.643Z,0.1
2018-12-10T03:09:54.985Z,0.1
2018-12-10T03:10:45.019Z,0.1
2018-12-10T03:11:35.122Z,0.1
2018-12-10T03:12:25.160Z,0.1
2018-12-10T03:13:15.180Z,0.1
2018-12-10T03:14:05.244Z,0.1
2018-12-10T03:14:55.317Z,0.1
2018-12-10T03:15:45.424Z,0.1
2018-12-10T03:16:35.416Z,0.1
2018-12-10T03:17:25.191Z,0.1
2018-12-10T03:18:15.542Z,0.1
2018-12-10T03:19:05.432Z,0.1
2018-12-10T03:19:55.664Z,0.1
2018-12-10T03:20:45.708Z,0.1
2018-12-10T03:21:35.772Z,0.1
2018-12-10T03:22:25.820Z,0.1
2018-12-10T03:23:15.882Z,0.1
2018-12-10T03:24:05.929Z,0.1
2018-12-10T03:24:55.729Z,0.1
2018-12-10T03:25:46.055Z,0.1
2018-12-10T03:26:36.111Z,0.1
2018-12-10T03:27:26.181Z,0.1
2018-12-10T03:28:15.981Z,0.1
2018-12-10T03:29:06.272Z,0.1
2018-12-10T03:29:56.336Z,0.1
2018-12-10T03:30:46.438Z,0.1
2018-12-10T03:31:36.501Z,0.1
2018-12-10T03:32:26.305Z,0.1
2018-12-10T03:33:16.644Z,0.1
2018-12-10T03:34:06.628Z,0.1
2018-12-10T03:34:56.418Z,0.1
2018-12-10T03:35:46.721Z,0.1
2018-12-10T03:36:37.037Z,0.1
2018-12-10T03:37:26.636Z,0.1
2018-12-10T03:38:16.905Z,0.1
2018-12-10T03:39:06.700Z,0.1
2018-12-10T03:39:57.022Z,0.1
2018-12-10T03:40:47.073Z,0.2
2018-12-10T03:41:37.138Z,0.1
2018-12-10T03:42:26.912Z,0.2
2018-12-10T03:43:17.300Z,0.2
2018-12-10T03:44:07.049Z,0.1
2018-12-10T03:44:57.090Z,0.1
2018-12-10T03:45:47.433Z,0.2
2018-12-10T03:46:37.470Z,0.1
2018-12-10T03:47:27.543Z,0.2
2018-12-10T03:48:17.313Z,0.1
2018-12-10T03:49:07.650Z,0.2
2018-12-10T03:49:57.699Z,0.1
2018-12-10T03:50:47.760Z,0.1
2018-12-10T03:51:37.814Z,0.1
2018-12-10T03:52:27.598Z,0.2
2018-12-10T03:53:17.391Z,0.1
2018-12-10T03:54:07.983Z,0.1
2018-12-10T03:54:58.327Z,0.2
2018-12-10T03:55:48.112Z,0.1
2018-12-10T03:56:37.885Z,0.1
2018-12-10T03:57:27.691Z,0.1
2018-12-10T03:58:18.293Z,0.2
2018-12-10T03:59:08.332Z,0.2
2018-12-10T03:59:58.389Z,0.2
2018-12-10T04:00:48.440Z,0.2
2018-12-10T04:01:38.503Z,0.1
2018-12-10T04:02:28.277Z,0.1
2018-12-10T04:03:18.632Z,0.1
2018-12-10T04:04:08.401Z,0.1
2018-12-10T04:04:58.733Z,0.1
2018-12-10T04:05:48.790Z,0.1
2018-12-10T04:06:38.575Z,0.2
2018-12-10T04:07:28.893Z,0.2
2018-12-10T04:08:18.690Z,0.2
2018-12-10T04:09:08.753Z,0.1
2018-12-10T04:09:59.095Z,0.1
2018-12-10T04:10:49.124Z,0.2
2018-12-10T04:11:39.181Z,0.1
2018-12-10T04:12:29.240Z,0.1
2018-12-10T04:13:19.311Z,0.1
2018-12-10T04:14:09.355Z,0.2
2018-12-10T04:14:59.412Z,0.2
2018-12-10T04:15:49.204Z,0.2
2018-12-10T04:16:39.281Z,0.1
2018-12-10T04:17:29.589Z,0.1
2018-12-10T04:18:19.635Z,0.1
2018-12-10T04:19:09.829Z,0.1
2018-12-10T04:19:59.493Z,0.1
2018-12-10T04:20:49.834Z,0.2
2018-12-10T04:21:39.867Z,0.2
2018-12-10T04:22:29.929Z,0.2
2018-12-10T04:23:20.239Z,0.2
2018-12-10T04:24:10.291Z,0.1
2018-12-10T04:25:00.147Z,0.1
2018-12-10T04:25:50.157Z,0.2
2018-12-10T04:26:40.219Z,0.2
2018-12-10T04:27:30.376Z,0.2
2018-12-10T04:28:20.333Z,0.2
2018-12-10T04:29:10.396Z,0.1
2018-12-10T04:29:59.881Z,0.2
2018-12-10T04:30:50.366Z,0.2
2018-12-10T04:31:40.301Z,0.1
2018-12-10T04:32:30.355Z,0.2
2018-12-10T04:33:20.432Z,0.2
2018-12-10T04:34:10.168Z,0.2
2018-12-10T04:35:00.794Z,0.2
2018-12-10T04:35:50.896Z,0.2
2018-12-10T04:36:40.942Z,0.2
2018-12-10T04:53:59.327Z,0.2
2018-12-10T04:54:49.419Z,0.2
2018-12-10T04:55:39.195Z,0.2
2018-12-10T04:56:29.525Z,0.2
2018-12-10T04:57:19.020Z,0.2
2018-12-10T04:58:09.919Z,0.2
2018-12-10T04:58:59.721Z,0.2
2018-12-10T04:59:54.301Z,0.2
2018-12-10T05:00:39.786Z,0.2
2018-12-10T05:01:29.568Z,0.2
2018-12-10T05:02:19.899Z,0.2
2018-12-10T05:03:10.207Z,0.2
2018-12-10T05:03:59.756Z,0.2
2018-12-10T05:04:50.168Z,0.2
2018-12-10T05:05:39.861Z,0.2
2018-12-10T05:06:30.186Z,0.2
2018-12-10T05:07:20.231Z,0.2
2018-12-10T05:08:09.754Z,0.2
2018-12-10T05:09:00.354Z,0.2
2018-12-10T05:09:50.409Z,0.2
2018-12-10T05:10:40.471Z,0.2
2018-12-10T05:11:30.775Z,0.2
2018-12-10T05:12:20.312Z,0.2
2018-12-10T05:13:10.641Z,0.2
2018-12-10T05:14:00.516Z,0.2
2018-12-10T05:14:50.753Z,0.2
2018-12-10T05:15:40.811Z,0.2
2018-12-10T05:16:30.585Z,0.2
2018-12-10T05:17:20.641Z,0.2
2018-12-10T05:18:10.701Z,0.2
2018-12-10T05:19:01.038Z,0.2
2018-12-10T05:19:51.066Z,0.3
2018-12-10T05:20:40.883Z,0.2
2018-12-10T05:21:31.213Z,0.2
2018-12-10T05:22:21.273Z,0.2
2018-12-10T05:23:11.323Z,0.2
2018-12-10T05:24:00.825Z,0.2
2018-12-10T05:24:51.447Z,0.2
2018-12-10T05:25:41.488Z,0.2
2018-12-10T05:26:31.270Z,0.2
2018-12-10T05:27:21.603Z,0.2
2018-12-10T05:28:11.660Z,0.2
2018-12-10T05:29:01.727Z,0.3
2018-12-10T05:29:51.780Z,0.2
2018-12-10T05:30:41.559Z,0.2
2018-12-10T05:31:31.885Z,0.2
2018-12-10T05:32:21.950Z,0.2
2018-12-10T05:33:12.002Z,0.2
2018-12-10T05:34:02.064Z,0.2
2018-12-10T05:34:52.360Z,0.2
2018-12-10T05:35:42.174Z,0.2
2018-12-10T05:36:32.235Z,0.2
2018-12-10T05:37:22.287Z,0.2
2018-12-10T05:38:12.153Z,0.2
2018-12-10T05:39:02.417Z,0.2
2018-12-10T05:39:51.905Z,0.2
2018-12-10T05:40:42.565Z,0.2
2018-12-10T05:41:32.575Z,0.2
2018-12-10T05:42:22.660Z,0.2
2018-12-10T05:43:12.417Z,0.2
2018-12-10T05:44:02.739Z,0.2
2018-12-10T05:44:52.531Z,0.2
2018-12-10T05:45:42.849Z,0.2
2018-12-10T05:46:32.632Z,0.2
2018-12-10T05:47:23.211Z,0.2
2018-12-10T05:48:13.032Z,0.3
2018-12-10T05:49:02.531Z,0.2
2018-12-10T05:49:53.142Z,0.3
2018-12-10T05:50:43.457Z,0.2
2018-12-10T05:51:33.254Z,0.2
2018-12-10T05:52:23.309Z,0.3
2018-12-10T05:53:13.364Z,0.2
2018-12-10T05:54:03.162Z,0.2
2018-12-10T05:54:53.216Z,0.2
2018-12-10T05:55:43.566Z,0.2
2018-12-10T05:56:33.608Z,0.3
2018-12-10T05:57:23.641Z,0.3
2018-12-10T05:58:13.706Z,0.2
2018-12-10T05:59:03.768Z,0.3
2018-12-10T05:59:53.636Z,0.2
2018-12-10T06:00:44.391Z,0.3
2018-12-10T06:01:33.935Z,0.3
2018-12-10T06:02:23.993Z,0.3
2018-12-10T06:03:14.045Z,0.3
2018-12-10T06:04:04.128Z,0.3
2018-12-10T06:04:54.163Z,0.3
2018-12-10T06:05:44.268Z,0.3
2018-12-10T06:06:34.249Z,0.3
2018-12-10T06:07:24.055Z,0.3
2018-12-10T06:08:14.387Z,0.3
2018-12-10T06:09:03.892Z,0.3
2018-12-10T06:09:54.223Z,0.2
2018-12-10T06:10:44.553Z,0.3
2018-12-10T06:11:34.610Z,0.3
2018-12-10T06:12:24.767Z,0.3
2018-12-10T06:13:14.736Z,0.3
2018-12-10T06:14:04.790Z,0.3
2018-12-10T06:14:54.687Z,0.3
2018-12-10T06:15:44.922Z,0.3
2018-12-10T06:16:34.972Z,0.3
2018-12-10T06:17:25.017Z,0.3
2018-12-10T06:18:14.807Z,0.3
2018-12-10T06:19:05.127Z,0.3
2018-12-10T06:19:54.904Z,0.3
2018-12-10T06:20:44.961Z,0.3
2018-12-10T06:21:35.299Z,0.3
2018-12-10T06:22:25.367Z,0.3
2018-12-10T06:23:15.419Z,0.3
2018-12-10T06:24:04.904Z,0.3
2018-12-10T06:24:55.529Z,0.3
2018-12-10T06:25:45.617Z,0.3
2018-12-10T06:26:35.364Z,0.3
2018-12-10T06:27:25.704Z,0.3
2018-12-10T06:28:15.771Z,0.3
2018-12-10T06:29:05.809Z,0.3
2018-12-10T06:29:55.873Z,0.3
2018-12-10T06:30:46.177Z,0.3
2018-12-10T06:31:35.758Z,0.3
2018-12-10T06:32:25.752Z,0.3
2018-12-10T06:33:16.013Z,0.3
2018-12-10T06:34:06.170Z,0.3
2018-12-10T06:34:56.199Z,0.3
2018-12-10T06:35:46.362Z,0.3
2018-12-10T06:36:36.329Z,0.3
2018-12-10T06:37:26.101Z,0.3
2018-12-10T06:38:16.150Z,0.3
2018-12-10T06:39:06.496Z,0.3
2018-12-10T06:39:56.543Z,0.3
2018-12-10T06:40:46.598Z,0.3
2018-12-10T06:41:36.397Z,0.3
2018-12-10T06:42:26.444Z,0.3
2018-12-10T06:43:16.764Z,0.3
2018-12-10T06:44:06.902Z,0.3
2018-12-10T06:44:56.875Z,0.3
2018-12-10T06:45:46.942Z,0.3
2018-12-10T06:46:37.000Z,0.3
2018-12-10T06:47:26.782Z,0.3
2018-12-10T06:48:17.114Z,0.3
2018-12-10T06:49:07.165Z,0.3
2018-12-10T06:49:56.942Z,0.3
2018-12-10T06:50:47.280Z,0.3
2018-12-10T06:51:37.307Z,0.3
2018-12-10T06:52:27.117Z,0.4
2018-12-10T06:53:17.437Z,0.3
2018-12-10T06:54:07.502Z,0.3
2018-12-10T06:54:57.570Z,0.3
2018-12-10T06:55:47.619Z,0.3
2018-12-10T06:56:38.174Z,0.4
2018-12-10T06:57:27.729Z,0.4
2018-12-10T06:58:17.237Z,0.4
2018-12-10T06:59:07.584Z,0.4
2018-12-10T06:59:57.901Z,0.4
2018-12-10T07:00:47.959Z,0.4
2018-12-10T07:01:38.259Z,0.4
2018-12-10T07:02:28.069Z,0.4
2018-12-10T07:03:17.572Z,0.4
2018-12-10T07:04:08.183Z,0.4
2018-12-10T07:04:58.236Z,0.4
2018-12-10T07:05:48.301Z,0.4
2018-12-10T07:06:38.348Z,0.4
2018-12-10T07:07:28.422Z,0.4
2018-12-10T07:08:18.471Z,0.4
2018-12-10T07:09:08.041Z,0.4
2018-12-10T07:09:58.571Z,0.4
2018-12-10T07:10:48.888Z,0.4
2018-12-10T07:11:38.703Z,0.4
2018-12-10T07:12:28.756Z,0.4
2018-12-10T07:13:19.055Z,0.5
2018-12-10T07:14:08.860Z,0.5
2018-12-10T07:14:58.915Z,0.5
2018-12-10T07:15:48.961Z,0.5
2018-12-10T07:16:38.748Z,0.5
2018-12-10T07:17:28.814Z,0.4
2018-12-10T07:18:19.127Z,0.5
2018-12-10T07:19:09.202Z,0.4
2018-12-10T07:19:58.985Z,0.5
2018-12-10T07:20:49.040Z,0.5
2018-12-10T07:21:38.821Z,0.5
2018-12-10T07:22:29.152Z,0.5
2018-12-10T07:23:19.599Z,0.5
2018-12-10T07:24:09.545Z,0.5
2018-12-10T07:24:59.603Z,0.5
2018-12-10T07:25:49.654Z,0.5
2018-12-10T07:26:39.707Z,0.5
2018-12-10T07:27:29.492Z,0.5
2018-12-10T07:28:19.542Z,0.5
2018-12-10T07:29:09.602Z,0.5
2018-12-10T07:29:59.942Z,0.5
2018-12-10T07:30:49.998Z,0.6
2018-12-10T07:31:40.045Z,0.6
2018-12-10T07:32:30.106Z,0.5
2018-12-10T07:33:19.885Z,0.6
2018-12-10T07:34:09.946Z,0.6
2018-12-10T07:35:00.281Z,0.6
2018-12-10T07:35:50.067Z,0.6
2018-12-10T07:36:40.402Z,0.6
2018-12-10T07:37:30.701Z,0.6
2018-12-10T07:38:20.507Z,0.6
2018-12-10T07:39:10.284Z,0.6
2018-12-10T07:40:00.626Z,0.6
2018-12-10T07:40:50.681Z,0.6
2018-12-10T07:41:40.456Z,0.6
2018-12-10T07:42:30.789Z,0.6
2018-12-10T07:43:20.851Z,0.6
2018-12-10T07:44:10.906Z,0.6
2018-12-10T07:45:00.678Z,0.6
2018-12-10T07:45:51.024Z,0.6
2018-12-10T07:46:41.077Z,0.6
2018-12-10T07:47:30.961Z,0.6
2018-12-10T07:48:20.924Z,0.6
2018-12-10T07:49:11.241Z,0.6
2018-12-10T07:50:01.306Z,0.6
2018-12-10T07:50:51.083Z,0.6
2018-12-10T07:51:41.410Z,0.6
2018-12-10T07:52:31.566Z,0.6
2018-12-10T07:53:21.528Z,0.6
2018-12-10T07:54:11.582Z,0.6
2018-12-10T07:55:01.654Z,0.6
2018-12-10T07:55:52.688Z,0.6
2018-12-10T07:56:41.752Z,0.6
2018-12-10T07:57:31.823Z,0.6
2018-12-10T07:58:21.867Z,0.6
2018-12-10T07:59:11.752Z,0.6
2018-12-10T08:00:01.990Z,0.6
2018-12-10T08:00:52.041Z,0.6
2018-12-10T08:01:42.110Z,0.6
2018-12-10T08:02:32.150Z,0.6
2018-12-10T08:03:21.962Z,0.6
2018-12-10T08:04:12.257Z,0.6
2018-12-10T08:05:02.320Z,0.6
2018-12-10T08:05:52.374Z,0.6
2018-12-10T08:06:42.487Z,0.7
2018-12-10T08:07:32.502Z,0.7
2018-12-10T08:08:22.549Z,0.7
2018-12-10T08:09:12.577Z,0.7
2018-12-10T08:10:02.679Z,0.7
2018-12-10T08:10:52.440Z,0.7
2018-12-10T08:11:42.775Z,0.7
2018-12-10T08:12:32.835Z,0.7
2018-12-10T08:13:22.872Z,0.7
2018-12-10T08:14:12.665Z,0.7
2018-12-10T08:15:03.020Z,0.8
2018-12-10T08:15:53.061Z,0.8
2018-12-10T08:16:43.126Z,0.7
2018-12-10T08:17:32.890Z,0.8
2018-12-10T08:18:22.954Z,0.8
2018-12-10T08:19:13.328Z,0.8
2018-12-10T08:20:02.813Z,0.8
2018-12-10T08:21:01.890Z,0.8
2018-12-10T08:21:43.453Z,0.8
2018-12-10T08:22:33.230Z,0.8
2018-12-10T08:23:23.660Z,0.8
2018-12-10T08:24:13.354Z,0.8
2018-12-10T08:25:03.677Z,0.8
2018-12-10T08:25:53.477Z,0.8
2018-12-10T08:26:43.516Z,0.8
2018-12-10T08:27:33.852Z,0.8
2018-12-10T08:28:23.918Z,0.9
2018-12-10T08:29:13.954Z,0.9
2018-12-10T08:30:04.279Z,0.9
2018-12-10T08:30:54.071Z,0.9
2018-12-10T08:31:43.887Z,0.9
2018-12-10T08:32:34.190Z,0.9
2018-12-10T08:33:24.247Z,0.9
2018-12-10T08:34:14.300Z,0.9
2018-12-10T08:35:04.353Z,0.9
2018-12-10T08:35:54.675Z,0.9
2018-12-10T08:36:44.471Z,0.9
2018-12-10T08:37:34.528Z,0.9
2018-12-10T08:38:24.590Z,0.9
2018-12-10T08:39:14.644Z,1
2018-12-10T08:40:04.945Z,1
2018-12-10T08:40:54.475Z,1
2018-12-10T08:41:44.536Z,1.1
2018-12-10T08:42:34.865Z,1.1
2018-12-10T08:43:24.648Z,1.1
2018-12-10T08:44:14.698Z,1.1
2018-12-10T08:45:05.044Z,1.1
2018-12-10T08:45:55.089Z,1.1
2018-12-10T08:46:44.865Z,1.1
2018-12-10T08:47:35.248Z,1.2
2018-12-10T08:48:24.990Z,1.2
2018-12-10T08:49:15.035Z,1.2
2018-12-10T08:50:05.065Z,1.3
2018-12-10T08:50:55.427Z,1.3
2018-12-10T08:51:45.492Z,1.3
2018-12-10T08:52:35.536Z,1.3
2018-12-10T09:08:22.681Z,2.3
2018-12-10T09:09:12.739Z,2.3
2018-12-10T09:10:02.846Z,2.5
2018-12-10T09:10:53.151Z,2.6
2018-12-10T09:11:42.674Z,2.7
2018-12-10T09:12:32.958Z,2.8
2018-12-10T09:13:23.116Z,2.9
2018-12-10T09:14:13.064Z,3
2018-12-10T09:15:03.165Z,3.1
2018-12-10T09:15:52.903Z,3.2
2018-12-10T09:16:43.463Z,3.3
2018-12-10T09:17:33.398Z,3.3
2018-12-10T09:18:23.077Z,3.4
2018-12-10T09:19:13.410Z,3.4
2018-12-10T09:20:03.465Z,3.5
2018-12-10T09:20:53.520Z,3.6
2018-12-10T09:21:43.557Z,3.6
2018-12-10T09:22:33.744Z,3.6
2018-12-10T09:23:23.690Z,3.7
2018-12-10T09:24:13.746Z,3.7
2018-12-10T09:25:03.525Z,3.8
2018-12-10T09:25:53.585Z,3.8
2018-12-10T09:26:43.920Z,3.8
2018-12-10T09:27:33.975Z,3.8
2018-12-10T09:28:24.035Z,3.8
2018-12-10T09:29:14.115Z,3.9
2018-12-10T09:30:04.140Z,3.9
2018-12-10T09:30:54.195Z,3.9
2018-12-10T09:31:43.986Z,3.9
2018-12-10T09:32:34.041Z,4
2018-12-10T09:33:24.381Z,4
2018-12-10T09:34:14.458Z,4
2018-12-10T09:35:04.479Z,4
2018-12-10T09:35:54.667Z,4
2018-12-10T09:36:44.604Z,4.1
2018-12-10T09:37:34.658Z,4.1
2018-12-10T09:38:24.710Z,4.1
2018-12-10T09:39:14.499Z,4.1
2018-12-10T09:40:04.824Z,4.1
2018-12-10T09:40:54.876Z,4.1
2018-12-10T09:41:44.660Z,4.1
2018-12-10T09:42:35.236Z,4.1
2018-12-10T09:43:25.061Z,4.1
2018-12-10T09:44:15.102Z,4.2
2018-12-10T09:45:05.167Z,4.2
2018-12-10T09:45:55.232Z,4.2
2018-12-10T09:46:45.386Z,4.2
2018-12-10T09:47:35.054Z,4.3
2018-12-10T09:48:25.388Z,4.3
2018-12-10T09:49:15.175Z,4.3
2018-12-10T09:50:05.504Z,4.3
2018-12-10T09:50:55.561Z,4.3
2018-12-10T09:51:45.343Z,4.4
2018-12-10T09:52:35.455Z,4.4
2018-12-10T09:53:25.986Z,4.4
2018-12-10T09:54:16.036Z,4.4
2018-12-10T09:55:05.846Z,4.5
2018-12-10T09:55:55.458Z,4.6
2018-12-10T09:56:45.968Z,4.6
2018-12-10T09:57:35.740Z,4.6
2018-12-10T09:58:26.095Z,4.6
2018-12-10T09:59:16.135Z,4.7
2018-12-10T10:00:06.192Z,4.8
2018-12-10T10:00:56.288Z,4.8
2018-12-10T10:01:46.010Z,4.8
2018-12-10T10:02:36.353Z,4.9
2018-12-10T10:03:26.423Z,4.9
2018-12-10T10:04:16.190Z,4.9
2018-12-10T10:05:05.970Z,5
2018-12-10T10:05:56.583Z,5.1
2018-12-10T10:06:46.640Z,5.1
2018-12-10T10:07:36.697Z,5.2
2018-12-10T10:08:27.007Z,5.3
2018-12-10T10:09:16.815Z,5.3
2018-12-10T10:10:06.908Z,5.3
2018-12-10T10:10:56.928Z,5.4
2018-12-10T10:11:47.067Z,5.4
2018-12-10T10:12:37.045Z,5.6
2018-12-10T10:13:27.102Z,5.6
2018-12-10T10:14:17.152Z,5.7
2018-12-10T10:15:07.207Z,5.8
2018-12-10T10:15:57.375Z,5.8
2018-12-10T10:16:47.249Z,5.9
2018-12-10T10:17:37.114Z,6
2018-12-10T10:18:27.447Z,6.1
2018-12-10T10:19:17.502Z,6.1
2018-12-10T10:20:07.572Z,6.3
2018-12-10T10:20:57.615Z,6.3
2018-12-10T10:21:47.127Z,6.4
2018-12-10T10:22:37.714Z,6.5
2018-12-10T10:23:27.778Z,6.6
2018-12-10T10:24:17.562Z,6.7
2018-12-10T10:25:08.156Z,6.8
2018-12-10T10:25:57.954Z,6.9
2018-12-10T10:26:47.724Z,6.9
2018-12-10T10:27:38.064Z,7
2018-12-10T10:28:28.125Z,7.1
2018-12-10T10:29:18.431Z,7.1
2018-12-10T10:30:08.246Z,7.2
2018-12-10T10:30:58.021Z,7.3
2018-12-10T10:31:48.347Z,7.3
2018-12-10T10:32:38.142Z,7.4
2018-12-10T10:33:33.849Z,7.4
2018-12-10T10:34:18.241Z,7.4
2018-12-10T10:35:08.568Z,7.5
2018-12-10T10:35:58.466Z,7.5
2018-12-10T10:36:48.686Z,7.5
2018-12-10T10:37:38.739Z,7.6
2018-12-10T10:38:28.529Z,7.6
2018-12-10T10:39:18.865Z,7.6
2018-12-10T10:40:08.656Z,7.6
2018-12-10T10:40:58.975Z,7.7
2018-12-10T10:41:49.132Z,7.7
2018-12-10T10:42:38.808Z,7.7
2018-12-10T10:43:29.145Z,7.8
2018-12-10T10:44:18.947Z,7.8
2018-12-10T10:45:09.261Z,7.8
2018-12-10T10:45:59.035Z,7.8
2018-12-10T10:46:49.138Z,7.9
2018-12-10T10:47:39.446Z,7.9
2018-12-10T10:48:29.478Z,7.9
2018-12-10T10:49:19.545Z,7.9
2018-12-10T10:50:09.320Z,7.9
2018-12-10T10:50:59.660Z,8
2018-12-10T10:51:49.735Z,8.1
2018-12-10T10:52:39.496Z,8.1
2018-12-10T10:53:29.837Z,8.1
2018-12-10T10:54:19.891Z,8.1
2018-12-10T10:55:10.189Z,8.2
2018-12-10T10:55:59.723Z,8.3
2018-12-10T10:56:50.059Z,8.3
2018-12-10T10:57:40.114Z,8.3
2018-12-10T10:58:30.179Z,8.4
2018-12-10T10:59:20.225Z,8.4
2018-12-10T11:00:10.530Z,8.4
2018-12-10T11:01:00.339Z,8.5
2018-12-10T11:01:50.399Z,8.6
2018-12-10T11:02:40.454Z,8.6
2018-12-10T11:03:30.229Z,8.7
2018-12-10T11:04:20.307Z,8.8
2018-12-10T11:05:10.361Z,8.8
2018-12-10T11:06:00.964Z,8.9
2018-12-10T11:06:50.470Z,8.9
2018-12-10T11:07:40.822Z,8.9
2018-12-10T11:08:30.864Z,9
2018-12-10T11:09:20.918Z,9.1
2018-12-10T11:10:10.964Z,9.1
2018-12-10T11:11:01.084Z,9.1
2018-12-10T11:11:50.804Z,9.1
2018-12-10T11:12:40.862Z,9.1
2018-12-10T11:13:31.454Z,9.1
2018-12-10T11:14:21.266Z,9.1
2018-12-10T11:15:11.038Z,9.2
2018-12-10T11:16:01.406Z,9.2
2018-12-10T11:16:51.428Z,9.2
2018-12-10T11:17:41.205Z,9.2
2018-12-10T11:18:31.536Z,9.1
2018-12-10T11:19:21.338Z,9.2
2018-12-10T11:20:11.429Z,9.2
2018-12-10T11:21:02.010Z,9.2
2018-12-10T11:21:51.770Z,9.2
2018-12-10T11:22:41.730Z,9.1
2018-12-10T11:23:31.895Z,9.2
2018-12-10T11:24:21.655Z,9.2
2018-12-10T11:25:12.013Z,9.2
2018-12-10T11:26:01.833Z,9.2
2018-12-10T11:26:52.100Z,9.2
2018-12-10T11:27:41.608Z,9.2
2018-12-10T11:28:32.212Z,9.2
2018-12-10T11:29:22.283Z,9.2
2018-12-10T11:30:12.382Z,9.2
2018-12-10T11:31:02.160Z,9.2
2018-12-10T11:31:52.708Z,9.2
2018-12-10T11:32:42.507Z,9.2
2018-12-10T11:33:32.398Z,9.2
2018-12-10T11:34:22.356Z,9.2
2018-12-10T11:35:12.677Z,9.2
2018-12-10T11:36:02.728Z,9.2
2018-12-10T11:36:52.787Z,9.2
2018-12-10T11:37:42.572Z,9.2
2018-12-10T11:38:32.912Z,9.2
2018-12-10T11:39:22.689Z,9.2
2018-12-10T11:40:12.742Z,9.2
2018-12-10T11:41:03.094Z,9.1
2018-12-10T11:41:52.854Z,9.1
2018-12-10T11:42:42.965Z,9.1
2018-12-10T11:43:33.244Z,9.1
2018-12-10T11:44:23.297Z,9.1
2018-12-10T11:45:13.371Z,9.1
2018-12-10T11:46:03.422Z,9
2018-12-10T11:46:53.477Z,9
2018-12-10T11:47:43.365Z,9
2018-12-10T11:48:33.589Z,9
2018-12-10T11:49:23.642Z,8.9
2018-12-10T11:50:14.201Z,8.9
2018-12-10T11:51:03.766Z,8.9
2018-12-10T11:51:53.808Z,8.9
2018-12-10T11:52:43.880Z,8.9
2018-12-10T11:53:33.925Z,8.9
2018-12-10T11:54:23.981Z,8.9
2018-12-10T11:55:14.046Z,8.9
2018-12-10T11:56:04.099Z,8.9
2018-12-10T11:56:54.187Z,8.9
2018-12-10T11:57:44.313Z,8.8
2018-12-10T11:58:34.276Z,8.8
2018-12-10T11:59:24.331Z,8.8
2018-12-10T12:00:14.378Z,8.8
2018-12-10T12:01:04.164Z,8.8
2018-12-10T12:01:54.494Z,8.8
2018-12-10T12:02:44.790Z,8.8
2018-12-10T12:03:34.320Z,8.7
2018-12-10T12:04:24.666Z,8.7
2018-12-10T12:05:14.740Z,8.7
2018-12-10T12:06:04.773Z,8.6
2018-12-10T12:06:54.838Z,8.7
2018-12-10T12:07:44.898Z,8.6
2018-12-10T12:08:34.950Z,8.6
2018-12-10T12:09:24.729Z,8.6
2018-12-10T12:10:14.510Z,8.6
2018-12-10T12:11:04.845Z,8.6
2018-12-10T12:11:55.177Z,8.6
2018-12-10T12:12:45.284Z,8.5
2018-12-10T12:13:35.118Z,8.5
2018-12-10T12:14:25.069Z,8.4
2018-12-10T12:15:15.400Z,8.4
2018-12-10T12:16:05.265Z,8.4